Wetterdaten: Woche 02.07.12 - 08.07.12 (KW27)
Datum Zeit Temp. A. Feuchte A. Luftdruck Regen Wind Richtung Taupunkt Windchill Windben
02.07.2012 00:00 23,2 C 66 % 1016,3 hPa 0,0 l/m 11,1 km/h N 16,4 C 22,0 C 35,8 km/h
02.07.2012 01:00 22,3 C 68 % 1017,3 hPa 0,0 l/m 9,5 km/h N 16,0 C 21,3 C 32,2 km/h
02.07.2012 02:00 21,7 C 69 % 1018,7 hPa 0,0 l/m 9,5 km/h N 15,6 C 20,7 C 25,3 km/h
02.07.2012 03:00 21,0 C 71 % 1018,8 hPa 0,0 l/m 8,5 km/h N 15,4 C 20,2 C 22,5 km/h
02.07.2012 04:00 20,7 C 71 % 1018,6 hPa 0,0 l/m 6,2 km/h N 15,2 C 20,6 C 17,7 km/h
02.07.2012 05:00 20,5 C 71 % 1018,3 hPa 0,0 l/m 5,4 km/h N 15,1 C 20,5 C 16,5 km/h
02.07.2012 06:00 20,2 C 73 % 1018,4 hPa 0,0 l/m 6,5 km/h N 15,2 C 19,9 C 18,5 km/h
02.07.2012 07:00 20,5 C 74 % 1018,4 hPa 0,0 l/m 7,2 km/h N 15,7 C 20,2 C 19,3 km/h
02.07.2012 08:00 21,7 C 71 % 1018,3 hPa 0,0 l/m 6,6 km/h N 16,2 C 21,5 C 15,3 km/h
02.07.2012 09:00 23,2 C 68 % 1018,0 hPa 0,0 l/m 4,5 km/h N 17,0 C 23,2 C 14,1 km/h
02.07.2012 10:00 25,1 C 63 % 1017,4 hPa 0,0 l/m 2,6 km/h N 17,4 C 25,1 C 10,4 km/h
02.07.2012 11:00 27,2 C 57 % 1016,8 hPa 0,0 l/m 2,2 km/h N 18,0 C 27,2 C 9,3 km/h
02.07.2012 12:00 29,1 C 53 % 1016,3 hPa 0,0 l/m 2,8 km/h N 18,4 C 29,1 C 11,7 km/h
02.07.2012 13:00 31,2 C 49 % 1015,5 hPa 0,0 l/m 3,1 km/h N 19,0 C 31,2 C 13,3 km/h
02.07.2012 14:00 33,5 C 44 % 1014,4 hPa 0,0 l/m 4,1 km/h N 19,7 C 33,5 C 20,9 km/h
02.07.2012 15:00 34,5 C 40 % 1013,6 hPa 0,0 l/m 7,7 km/h N 18,9 C 34,5 C 23,7 km/h
02.07.2012 16:00 34,1 C 41 % 1013,0 hPa 0,0 l/m 7,5 km/h N 18,8 C 34,1 C 23,3 km/h
02.07.2012 17:00 34,3 C 39 % 1012,5 hPa 0,0 l/m 7,9 km/h N 18,5 C 34,3 C 24,5 km/h
02.07.2012 18:00 34,5 C 39 % 1012,4 hPa 0,0 l/m 6,7 km/h N 18,4 C 34,5 C 22,1 km/h
02.07.2012 19:00 34,2 C 42 % 1012,3 hPa 0,0 l/m 2,0 km/h N 19,2 C 34,2 C 12,5 km/h
02.07.2012 20:00 32,5 C 45 % 1012,3 hPa 0,0 l/m 0,3 km/h N 19,0 C 32,5 C 5,6 km/h
02.07.2012 21:00 30,5 C 50 % 1012,4 hPa 0,0 l/m 0,9 km/h N 18,7 C 30,5 C 5,6 km/h
02.07.2012 22:00 28,6 C 53 % 1012,6 hPa 0,0 l/m 0,1 km/h N 18,0 C 28,6 C 2,4 km/h
02.07.2012 23:00 27,3 C 55 % 1012,5 hPa 0,0 l/m 1,0 km/h N 17,5 C 27,3 C 4,8 km/h
03.07.2012 00:00 26,6 C 59 % 1012,6 hPa 0,0 l/m 1,0 km/h N 17,9 C 26,6 C 6,0 km/h
03.07.2012 01:00 25,4 C 65 % 1012,7 hPa 0,0 l/m 0,0 km/h N 18,2 C 25,4 C 1,2 km/h
03.07.2012 02:00 23,3 C 72 % 1012,6 hPa 0,0 l/m 0,0 km/h N 17,9 C 23,3 C 0,0 km/h
03.07.2012 03:00 21,8 C 77 % 1012,7 hPa 0,0 l/m 0,0 km/h N 17,6 C 21,8 C 0,0 km/h
03.07.2012 04:00 21,7 C 78 % 1013,0 hPa 0,0 l/m 0,7 km/h N 17,6 C 21,7 C 5,2 km/h
03.07.2012 05:00 22,1 C 76 % 1013,7 hPa 0,0 l/m 2,7 km/h N 17,7 C 22,1 C 10,1 km/h
03.07.2012 06:00 22,6 C 75 % 1013,8 hPa 0,0 l/m 2,1 km/h N 17,9 C 22,6 C 7,6 km/h
03.07.2012 07:00 23,5 C 75 % 1014,0 hPa 0,0 l/m 2,9 km/h N 18,7 C 23,5 C 10,5 km/h
03.07.2012 08:00 24,7 C 72 % 1014,0 hPa 0,0 l/m 6,2 km/h N 19,2 C 24,6 C 15,3 km/h
03.07.2012 09:00 26,1 C 67 % 1013,8 hPa 0,0 l/m 4,6 km/h N 19,4 C 26,1 C 10,9 km/h
03.07.2012 10:00 28,0 C 62 % 1013,4 hPa 0,0 l/m 2,5 km/h N 19,9 C 28,0 C 10,1 km/h
03.07.2012 11:00 30,8 C 54 % 1013,3 hPa 0,0 l/m 2,0 km/h N 20,5 C 30,8 C 9,7 km/h
03.07.2012 12:00 32,2 C 50 % 1012,4 hPa 0,0 l/m 2,3 km/h N 20,3 C 32,2 C 10,5 km/h
03.07.2012 13:00 34,2 C 41 % 1011,8 hPa 0,0 l/m 4,7 km/h N 18,8 C 34,2 C 20,5 km/h
03.07.2012 14:00 33,8 C 39 % 1011,3 hPa 0,0 l/m 4,7 km/h N 18,0 C 33,8 C 18,1 km/h
03.07.2012 15:00 31,6 C 52 % 1011,2 hPa 0,0 l/m 6,1 km/h N 20,0 C 31,4 C 19,3 km/h
03.07.2012 16:00 28,4 C 63 % 1010,7 hPa 0,0 l/m 5,1 km/h N 20,7 C 28,3 C 16,5 km/h
03.07.2012 17:00 28,6 C 64 % 1010,5 hPa 0,0 l/m 5,6 km/h N 21,2 C 28,6 C 15,7 km/h
03.07.2012 18:00 27,6 C 66 % 1011,0 hPa 0,0 l/m 7,4 km/h N 20,7 C 27,3 C 21,7 km/h
03.07.2012 19:00 26,2 C 65 % 1011,0 hPa 0,0 l/m 3,9 km/h N 18,9 C 26,2 C 14,1 km/h
03.07.2012 20:00 24,8 C 64 % 1012,3 hPa 1,6 l/m 5,3 km/h N 17,4 C 24,6 C 21,3 km/h
03.07.2012 21:00 20,8 C 77 % 1012,8 hPa 1,8 l/m 3,8 km/h N 16,7 C 20,8 C 16,1 km/h
03.07.2012 22:00 20,0 C 80 % 1013,4 hPa 5,7 l/m 6,4 km/h N 16,5 C 19,4 C 21,3 km/h
03.07.2012 23:00 19,4 C 80 % 1013,7 hPa 4,4 l/m 2,8 km/h N 15,9 C 19,4 C 10,5 km/h
04.07.2012 00:00 19,0 C 79 % 1012,8 hPa 1,3 l/m 1,8 km/h N 15,2 C 19,0 C 10,0 km/h
04.07.2012 01:00 19,3 C 78 % 1013,6 hPa 2,1 l/m 1,7 km/h N 15,2 C 19,3 C 7,6 km/h
04.07.2012 02:00 19,9 C 77 % 1014,3 hPa 2,3 l/m 1,2 km/h N 15,6 C 19,9 C 6,0 km/h
04.07.2012 03:00 20,0 C 76 % 1013,8 hPa 1,6 l/m 0,6 km/h N 15,6 C 20,0 C 5,2 km/h
04.07.2012 04:00 19,8 C 76 % 1013,4 hPa 1,3 l/m 0,3 km/h N 15,5 C 19,8 C 4,0 km/h
04.07.2012 05:00 19,8 C 76 % 1013,6 hPa 1,0 l/m 0,0 km/h N 15,4 C 19,8 C 2,0 km/h
04.07.2012 06:00 19,8 C 75 % 1013,6 hPa 0,0 l/m 0,1 km/h N 15,3 C 19,8 C 2,4 km/h
04.07.2012 07:00 20,2 C 75 % 1013,3 hPa 0,0 l/m 0,0 km/h N 15,5 C 20,2 C 0,8 km/h
04.07.2012 08:00 21,6 C 77 % 1013,4 hPa 0,0 l/m 1,1 km/h N 17,3 C 21,6 C 6,0 km/h
04.07.2012 09:00 23,4 C 80 % 1013,2 hPa 0,0 l/m 2,4 km/h N 19,7 C 23,4 C 8,9 km/h
04.07.2012 10:00 24,7 C 75 % 1013,2 hPa 0,0 l/m 5,3 km/h N 19,9 C 24,7 C 12,1 km/h
04.07.2012 11:00 25,4 C 72 % 1013,1 hPa 0,0 l/m 5,5 km/h N 19,9 C 25,4 C 14,9 km/h
04.07.2012 12:00 26,0 C 69 % 1012,8 hPa 0,0 l/m 4,6 km/h N 19,8 C 26,0 C 11,7 km/h
04.07.2012 13:00 27,3 C 65 % 1012,2 hPa 0,0 l/m 3,7 km/h N 20,2 C 27,3 C 11,3 km/h
04.07.2012 14:00 28,2 C 61 % 1011,6 hPa 0,0 l/m 2,1 km/h N 19,8 C 28,2 C 8,4 km/h
04.07.2012 15:00 29,0 C 57 % 1011,0 hPa 0,0 l/m 2,4 km/h N 19,6 C 29,0 C 8,9 km/h
04.07.2012 16:00 29,3 C 56 % 1010,6 hPa 0,0 l/m 1,1 km/h N 19,5 C 29,3 C 8,4 km/h
04.07.2012 17:00 30,1 C 53 % 1010,0 hPa 0,0 l/m 1,2 km/h N 19,4 C 30,1 C 7,6 km/h
04.07.2012 18:00 30,9 C 52 % 1009,7 hPa 0,0 l/m 0,4 km/h N 19,7 C 30,9 C 5,6 km/h
04.07.2012 19:00 30,6 C 51 % 1009,9 hPa 0,0 l/m 0,2 km/h N 19,4 C 30,6 C 3,6 km/h
04.07.2012 20:00 29,0 C 55 % 1009,8 hPa 0,0 l/m 0,0 km/h N 19,0 C 29,0 C 0,4 km/h
04.07.2012 21:00 26,1 C 65 % 1010,2 hPa 0,0 l/m 0,0 km/h N 18,8 C 26,1 C 0,0 km/h
04.07.2012 22:00 23,8 C 73 % 1010,6 hPa 0,0 l/m 0,0 km/h N 18,6 C 23,8 C 1,6 km/h
04.07.2012 23:00 22,6 C 77 % 1010,6 hPa 0,0 l/m 0,0 km/h N 18,3 C 22,6 C 0,0 km/h
05.07.2012 00:00 21,5 C 80 % 1010,5 hPa 0,0 l/m 0,0 km/h N 17,8 C 21,5 C 0,4 km/h
05.07.2012 01:00 20,8 C 81 % 1010,7 hPa 0,0 l/m 0,0 km/h N 17,4 C 20,8 C 0,0 km/h
05.07.2012 02:00 20,3 C 81 % 1010,4 hPa 0,0 l/m 0,0 km/h N 16,9 C 20,3 C 0,0 km/h
05.07.2012 03:00 19,8 C 81 % 1010,6 hPa 0,0 l/m 0,0 km/h N 16,4 C 19,8 C 0,4 km/h
05.07.2012 04:00 19,2 C 81 % 1010,3 hPa 0,0 l/m 0,0 km/h N 15,8 C 19,2 C 0,0 km/h
05.07.2012 05:00 18,9 C 80 % 1010,4 hPa 0,0 l/m 0,0 km/h N 15,3 C 18,9 C 0,4 km/h
05.07.2012 06:00 19,2 C 78 % 1010,4 hPa 0,0 l/m 0,0 km/h N 15,3 C 19,2 C 0,4 km/h
05.07.2012 07:00 20,5 C 78 % 1010,3 hPa 0,0 l/m 0,0 km/h N 16,6 C 20,5 C 1,2 km/h
05.07.2012 08:00 24,2 C 70 % 1010,5 hPa 0,0 l/m 1,2 km/h N 18,3 C 24,2 C 8,9 km/h
05.07.2012 09:00 26,8 C 60 % 1010,7 hPa 0,0 l/m 1,6 km/h N 18,3 C 26,8 C 7,6 km/h
05.07.2012 10:00 28,6 C 58 % 1010,5 hPa 0,0 l/m 1,8 km/h N 19,5 C 28,6 C 8,8 km/h
05.07.2012 11:00 30,1 C 55 % 1010,3 hPa 0,0 l/m 2,6 km/h N 20,1 C 30,1 C 10,5 km/h
05.07.2012 12:00 31,2 C 52 % 1010,0 hPa 0,0 l/m 5,3 km/h N 20,1 C 31,2 C 17,3 km/h
05.07.2012 13:00 32,8 C 46 % 1009,3 hPa 0,0 l/m 5,2 km/h N 19,5 C 32,8 C 17,7 km/h
05.07.2012 14:00 33,3 C 45 % 1008,7 hPa 0,0 l/m 5,8 km/h N 19,7 C 33,3 C 16,9 km/h
05.07.2012 15:00 33,2 C 44 % 1008,0 hPa 0,0 l/m 6,6 km/h N 19,4 C 33,2 C 20,9 km/h
05.07.2012 16:00 34,0 C 40 % 1007,6 hPa 0,0 l/m 8,2 km/h N 18,3 C 34,0 C 24,1 km/h
05.07.2012 17:00 29,1 C 52 % 1008,8 hPa 0,0 l/m 10,1 km/h N 18,1 C 28,6 C 29,4 km/h
05.07.2012 18:00 22,9 C 77 % 1010,1 hPa 9,6 l/m 8,5 km/h N 18,5 C 22,2 C 22,5 km/h
05.07.2012 19:00 22,8 C 77 % 1010,2 hPa 0,0 l/m 2,0 km/h N 18,5 C 22,8 C 10,1 km/h
05.07.2012 20:00 23,5 C 70 % 1010,3 hPa 0,3 l/m 2,4 km/h N 17,7 C 23,5 C 10,1 km/h
05.07.2012 21:00 22,6 C 71 % 1009,6 hPa 0,0 l/m 0,2 km/h N 17,0 C 22,6 C 2,4 km/h
05.07.2012 22:00 21,9 C 69 % 1009,2 hPa 0,0 l/m 0,8 km/h N 16,0 C 21,9 C 5,2 km/h
05.07.2012 23:00 21,8 C 69 % 1009,0 hPa 0,0 l/m 0,3 km/h N 15,8 C 21,8 C 5,6 km/h
06.07.2012 00:00 21,3 C 72 % 1009,1 hPa 0,0 l/m 1,1 km/h N 16,1 C 21,3 C 6,0 km/h
06.07.2012 01:00 22,0 C 70 % 1008,7 hPa 0,0 l/m 4,0 km/h N 16,1 C 22,0 C 10,1 km/h
06.07.2012 02:00 21,4 C 72 % 1008,8 hPa 0,0 l/m 0,9 km/h N 16,1 C 21,4 C 4,4 km/h
06.07.2012 03:00 19,6 C 78 % 1008,9 hPa 0,0 l/m 0,0 km/h N 15,6 C 19,6 C 0,8 km/h
06.07.2012 04:00 18,6 C 81 % 1008,9 hPa 0,0 l/m 0,2 km/h N 15,3 C 18,6 C 2,4 km/h
06.07.2012 05:00 18,3 C 81 % 1009,5 hPa 0,0 l/m 0,3 km/h N 15,0 C 18,3 C 4,4 km/h
06.07.2012 06:00 19,3 C 80 % 1009,8 hPa 0,0 l/m 0,0 km/h N 15,8 C 19,3 C 0,8 km/h
06.07.2012 07:00 20,8 C 77 % 1009,9 hPa 0,0 l/m 0,0 km/h N 16,5 C 20,8 C 0,0 km/h
06.07.2012 08:00 24,6 C 66 % 1010,0 hPa 0,0 l/m 0,8 km/h N 17,7 C 24,6 C 6,8 km/h
06.07.2012 09:00 26,9 C 60 % 1009,7 hPa 0,0 l/m 1,0 km/h N 18,4 C 26,9 C 6,4 km/h
06.07.2012 10:00 28,4 C 56 % 1009,4 hPa 0,0 l/m 1,5 km/h N 18,6 C 28,4 C 8,9 km/h
06.07.2012 11:00 29,9 C 55 % 1009,1 hPa 0,0 l/m 1,8 km/h N 19,9 C 29,9 C 9,6 km/h
06.07.2012 12:00 31,5 C 52 % 1008,7 hPa 0,0 l/m 2,9 km/h N 20,3 C 31,5 C 14,1 km/h
06.07.2012 13:00 33,1 C 48 % 1008,0 hPa 0,0 l/m 3,6 km/h N 20,4 C 33,1 C 16,5 km/h
06.07.2012 14:00 34,5 C 37 % 1007,6 hPa 0,0 l/m 6,7 km/h N 17,4 C 34,5 C 22,1 km/h
06.07.2012 15:00 34,6 C 35 % 1007,2 hPa 0,0 l/m 8,3 km/h N 16,9 C 34,6 C 25,3 km/h
06.07.2012 16:00 34,3 C 39 % 1006,9 hPa 0,5 l/m 5,0 km/h N 18,0 C 34,3 C 20,9 km/h
06.07.2012 17:00 28,9 C 58 % 1008,0 hPa 1,0 l/m 5,0 km/h N 19,7 C 28,8 C 22,9 km/h
06.07.2012 18:00 27,0 C 54 % 1010,0 hPa 0,0 l/m 11,9 km/h N 16,7 C 26,1 C 38,2 km/h
06.07.2012 19:00 24,9 C 58 % 1010,6 hPa 0,0 l/m 3,4 km/h N 16,0 C 24,9 C 13,7 km/h
06.07.2012 20:00 24,0 C 62 % 1009,4 hPa 0,0 l/m 2,3 km/h N 16,3 C 24,0 C 10,9 km/h
06.07.2012 21:00 22,6 C 68 % 1009,4 hPa 0,0 l/m 0,3 km/h N 16,3 C 22,6 C 6,4 km/h
06.07.2012 22:00 21,5 C 73 % 1009,8 hPa 0,0 l/m 0,1 km/h N 16,3 C 21,5 C 2,0 km/h
06.07.2012 23:00 20,2 C 77 % 1009,9 hPa 0,0 l/m 0,2 km/h N 15,9 C 20,2 C 2,0 km/h
07.07.2012 00:00 19,4 C 79 % 1010,7 hPa 0,0 l/m 0,0 km/h N 15,6 C 19,4 C 0,4 km/h
07.07.2012 01:00 18,8 C 80 % 1011,5 hPa 0,0 l/m 0,1 km/h N 15,2 C 18,8 C 1,6 km/h
07.07.2012 02:00 18,6 C 81 % 1011,0 hPa 0,0 l/m 0,0 km/h N 15,2 C 18,6 C 0,8 km/h
07.07.2012 03:00 18,4 C 79 % 1011,1 hPa 0,0 l/m 0,1 km/h N 14,7 C 18,4 C 3,2 km/h
07.07.2012 04:00 18,3 C 80 % 1011,1 hPa 0,0 l/m 0,1 km/h N 14,7 C 18,3 C 2,0 km/h
07.07.2012 05:00 17,6 C 81 % 1011,0 hPa 0,0 l/m 0,0 km/h N 14,2 C 17,6 C 0,0 km/h
07.07.2012 06:00 17,7 C 81 % 1010,9 hPa 0,0 l/m 0,0 km/h N 14,4 C 17,7 C 0,0 km/h
07.07.2012 07:00 19,3 C 79 % 1010,9 hPa 0,0 l/m 0,1 km/h N 15,5 C 19,3 C 1,6 km/h
07.07.2012 08:00 23,5 C 69 % 1011,1 hPa 0,0 l/m 0,5 km/h N 17,3 C 23,5 C 4,4 km/h
07.07.2012 09:00 25,5 C 63 % 1011,0 hPa 0,0 l/m 1,0 km/h N 17,8 C 25,5 C 5,6 km/h
07.07.2012 10:00 27,0 C 58 % 1010,9 hPa 0,0 l/m 0,8 km/h N 18,0 C 27,0 C 5,6 km/h
07.07.2012 11:00 28,0 C 58 % 1010,9 hPa 0,0 l/m 1,6 km/h N 18,9 C 28,0 C 8,9 km/h
07.07.2012 12:00 28,5 C 59 % 1010,7 hPa 0,0 l/m 1,6 km/h N 19,6 C 28,5 C 11,3 km/h
07.07.2012 13:00 29,8 C 51 % 1010,5 hPa 0,0 l/m 1,6 km/h N 18,4 C 29,8 C 9,7 km/h
07.07.2012 14:00 30,3 C 50 % 1010,1 hPa 0,0 l/m 2,4 km/h N 18,6 C 30,3 C 11,3 km/h
07.07.2012 15:00 29,6 C 51 % 1010,0 hPa 0,0 l/m 4,0 km/h N 18,2 C 29,6 C 13,7 km/h
07.07.2012 16:00 28,9 C 55 % 1009,8 hPa 0,0 l/m 5,6 km/h N 18,7 C 28,9 C 18,5 km/h
07.07.2012 17:00 28,3 C 56 % 1009,8 hPa 0,0 l/m 5,6 km/h N 18,5 C 28,3 C 17,7 km/h
07.07.2012 18:00 27,3 C 56 % 1009,7 hPa 0,0 l/m 8,0 km/h N 17,7 C 27,0 C 24,9 km/h
07.07.2012 19:00 26,8 C 57 % 1009,7 hPa 0,0 l/m 6,4 km/h N 17,6 C 26,9 C 20,1 km/h
07.07.2012 20:00 25,6 C 61 % 1010,0 hPa 0,0 l/m 4,0 km/h N 17,4 C 25,6 C 21,7 km/h
07.07.2012 21:00 24,3 C 67 % 1010,8 hPa 0,0 l/m 1,5 km/h N 17,7 C 24,3 C 14,0 km/h
07.07.2012 22:00 23,4 C 68 % 1011,3 hPa 0,0 l/m 1,5 km/h N 17,2 C 23,4 C 8,0 km/h
07.07.2012 23:00 23,4 C 68 % 1011,6 hPa 0,0 l/m 6,8 km/h N 17,1 C 23,2 C 21,3 km/h
08.07.2012 00:00 23,2 C 69 % 1012,0 hPa 0,0 l/m 7,9 km/h N 17,2 C 22,7 C 23,7 km/h
08.07.2012 01:00 22,3 C 73 % 1012,3 hPa 0,0 l/m 2,5 km/h N 17,1 C 22,3 C 10,1 km/h
08.07.2012 02:00 21,9 C 76 % 1012,5 hPa 0,0 l/m 6,7 km/h N 17,3 C 21,5 C 19,3 km/h
08.07.2012 03:00 21,0 C 79 % 1012,2 hPa 0,0 l/m 4,5 km/h N 17,2 C 21,0 C 12,5 km/h
08.07.2012 04:00 20,5 C 81 % 1012,0 hPa 0,0 l/m 1,1 km/h N 17,1 C 20,5 C 6,0 km/h
08.07.2012 05:00 20,1 C 80 % 1011,9 hPa 0,0 l/m 0,3 km/h N 16,6 C 20,1 C 2,8 km/h
08.07.2012 06:00 20,1 C 79 % 1011,6 hPa 0,0 l/m 0,0 km/h N 16,4 C 20,1 C 1,2 km/h
08.07.2012 07:00 20,8 C 80 % 1011,2 hPa 0,0 l/m 0,1 km/h N 17,3 C 20,8 C 2,8 km/h
08.07.2012 08:00 22,4 C 77 % 1010,9 hPa 0,0 l/m 2,0 km/h N 18,1 C 22,4 C 6,8 km/h
08.07.2012 09:00 24,7 C 68 % 1010,4 hPa 0,0 l/m 1,3 km/h N 18,3 C 24,7 C 7,2 km/h
08.07.2012 10:00 26,6 C 60 % 1010,0 hPa 0,0 l/m 1,6 km/h N 18,2 C 26,6 C 7,6 km/h
08.07.2012 11:00 28,6 C 58 % 1009,1 hPa 0,0 l/m 1,7 km/h N 19,4 C 28,6 C 9,6 km/h
08.07.2012 12:00 29,8 C 53 % 1008,1 hPa 0,0 l/m 4,6 km/h N 19,3 C 29,8 C 17,7 km/h
08.07.2012 13:00 31,6 C 49 % 1007,3 hPa 0,0 l/m 4,5 km/h N 19,5 C 31,6 C 17,7 km/h
08.07.2012 14:00 32,3 C 47 % 1006,6 hPa 0,0 l/m 4,3 km/h N 19,6 C 32,3 C 19,7 km/h
08.07.2012 15:00 32,6 C 41 % 1005,9 hPa 0,0 l/m 5,4 km/h N 17,7 C 32,6 C 19,7 km/h
08.07.2012 16:00 31,5 C 48 % 1005,9 hPa 0,0 l/m 4,2 km/h N 19,0 C 31,5 C 13,3 km/h
08.07.2012 17:00 29,5 C 51 % 1006,7 hPa 0,0 l/m 5,3 km/h N 18,3 C 29,5 C 15,7 km/h
08.07.2012 18:00 28,5 C 55 % 1007,7 hPa 0,0 l/m 5,5 km/h N 18,4 C 28,4 C 15,3 km/h
08.07.2012 19:00 27,5 C 57 % 1007,8 hPa 0,0 l/m 5,6 km/h N 18,3 C 27,4 C 15,3 km/h
08.07.2012 20:00 27,4 C 60 % 1007,8 hPa 0,0 l/m 2,3 km/h N 18,8 C 27,4 C 10,5 km/h
08.07.2012 21:00 26,0 C 63 % 1008,3 hPa 0,0 l/m 1,7 km/h N 18,2 C 26,0 C 8,4 km/h
08.07.2012 22:00 24,2 C 69 % 1008,7 hPa 0,0 l/m 0,6 km/h N 18,0 C 24,2 C 2,4 km/h
08.07.2012 23:00 23,6 C 69 % 1008,8 hPa 0,0 l/m 2,1 km/h N 17,6 C 23,6 C 10,5 km/h
Min-Datum _ 07.07.12 06.07.12 08.07.12 - 02.07.12 - 07.07.12 07.07.12 03.07.12
_ Min-Zeit 05:45 16:30 15:45 - 22:30 - 05:45 05:45 01:30
Minimum _ 17,4 C 33 % 1005,7 hPa - 0,0 km/h - 14,1 C 17,4 C 0,0 km/h
Max-Datum _ 06.07.12 04.07.12 02.07.12 05.07.12 06.07.12 - 06.07.12 06.07.12 06.07.12
_ Max-Zeit 15:00 09:00 03:15 18:00 18:15 - 13:45 14:45 18:15
Maximum _ 35,1 C 82 % 1018,9 hPa 9,6 l/m 16,0 km/h
N
- 21,5 C 35,0 C 46,7 km/h
N
Durchschnitt _ 25,4 C 64 % 1011,3 hPa #34,6 l/m 2,9 km/h N 17,7 C 25,3 C 10,9 km/h